createdAt,value
2018-03-01T00:00:10.811Z,102623.14
2018-03-01T00:02:36.560Z,102619.99
2018-03-01T00:05:02.323Z,102619.28
2018-03-01T00:07:28.093Z,102607.13
2018-03-01T00:09:53.852Z,102611.25
2018-03-01T00:12:19.597Z,102605.98
2018-03-01T00:14:45.359Z,102601.53
2018-03-01T00:17:11.096Z,102602.86
2018-03-01T00:19:36.843Z,102597.08
2018-03-01T00:22:02.635Z,102596.73
2018-03-01T00:24:28.382Z,102602.48
2018-03-01T00:26:54.130Z,102589.71
2018-03-01T00:29:19.894Z,102595.08
2018-03-01T00:31:45.629Z,102580.42
2018-03-01T00:34:11.399Z,102582.87
2018-03-01T00:36:37.149Z,102582.31
2018-03-01T00:39:02.930Z,102586.23
2018-03-01T00:41:28.682Z,102579.28
2018-03-01T00:44:01.438Z,102590.16
2018-03-01T00:46:27.190Z,102584.05
2018-03-01T00:48:52.944Z,102580.98
2018-03-01T00:51:18.711Z,102576.38
2018-03-01T00:53:44.453Z,102574.87
2018-03-01T00:56:10.205Z,102573.66
2018-03-01T00:58:35.953Z,102566.33
2018-03-01T01:01:01.706Z,102561.91
2018-03-01T01:03:27.460Z,102542.16
2018-03-01T01:05:53.219Z,102540.53
2018-03-01T01:08:18.969Z,102534.75
2018-03-01T01:10:44.723Z,102535.02
2018-03-01T01:13:10.466Z,102542.69
2018-03-01T01:15:36.219Z,102528.14
2018-03-01T01:18:01.964Z,102519.84
2018-03-01T01:20:27.721Z,102527.66
2018-03-01T01:22:53.471Z,102527.42
2018-03-01T01:25:19.221Z,102521.53
2018-03-01T01:27:44.981Z,102522.47
2018-03-01T01:30:10.746Z,102527.50
2018-03-01T01:32:36.492Z,102523.48
2018-03-01T01:35:02.251Z,102516.88
2018-03-01T01:37:28.012Z,102502.34
2018-03-01T01:39:53.763Z,102500.41
2018-03-01T01:42:19.515Z,102499.11
2018-03-01T01:44:45.250Z,102494.13
2018-03-01T01:47:11.010Z,102492.53
2018-03-01T01:49:36.757Z,102488.22
2018-03-01T01:52:02.514Z,102480.95
2018-03-01T01:54:28.249Z,102475.33
2018-03-01T01:56:53.989Z,102468.02
2018-03-01T01:59:19.725Z,102468.02
2018-03-01T02:01:45.488Z,102458.86
2018-03-01T02:04:11.266Z,102456.67
2018-03-01T02:06:37.027Z,102456.02
2018-03-01T02:09:02.786Z,102453.45
2018-03-01T02:11:28.554Z,102447.30
2018-03-01T02:13:54.301Z,102451.80
2018-03-01T02:16:20.050Z,102449.16
2018-03-01T02:18:45.803Z,102449.39
2018-03-01T02:21:11.559Z,102450.45
2018-03-01T02:23:37.318Z,102446.97
2018-03-01T02:26:03.058Z,102436.82
2018-03-01T02:28:28.814Z,102432.09
2018-03-01T02:30:54.566Z,102422.33
2018-03-01T02:33:20.334Z,102417.95
2018-03-01T02:35:46.082Z,102414.16
2018-03-01T02:38:11.833Z,102402.09
2018-03-01T02:40:37.592Z,102405.59
2018-03-01T02:43:03.340Z,102410.75
2018-03-01T02:45:29.096Z,102408.45
2018-03-01T02:47:54.846Z,102395.92
2018-03-01T02:50:20.587Z,102396.61
2018-03-01T02:52:46.338Z,102388.61
2018-03-01T02:55:12.077Z,102391.50
2018-03-01T02:57:37.834Z,102384.46
2018-03-01T03:00:03.589Z,102392.29
2018-03-01T03:02:29.328Z,102385.97
2018-03-01T03:04:55.078Z,102382.41
2018-03-01T03:07:20.814Z,102377.08
2018-03-01T03:09:46.569Z,102380.86
2018-03-01T03:12:12.318Z,102381.88
2018-03-01T03:14:38.071Z,102377.13
2018-03-01T03:17:03.809Z,102370.33
2018-03-01T03:19:29.562Z,102376.36
2018-03-01T03:21:55.294Z,102373.52
2018-03-01T03:24:21.058Z,102371.09
2018-03-01T03:26:46.791Z,102370.41
2018-03-01T03:29:12.543Z,102374.99
2018-03-01T03:31:38.288Z,102377.95
2018-03-01T03:34:04.045Z,102370.55
2018-03-01T03:36:29.794Z,102357.84
2018-03-01T03:38:55.557Z,102364.95
2018-03-01T03:41:21.302Z,102360.06
2018-03-01T03:43:47.061Z,102367.64
2018-03-01T03:46:13.774Z,102354.41
2018-03-01T03:48:39.518Z,102355.06
2018-03-01T03:51:05.278Z,102358.67
2018-03-01T03:53:31.023Z,102341.35
2018-03-01T03:55:56.765Z,102348.08
2018-03-01T03:58:22.518Z,102344.85
2018-03-01T04:00:48.276Z,102345.05
2018-03-01T04:03:14.021Z,102331.83
2018-03-01T04:05:39.773Z,102331.09
2018-03-01T04:08:05.514Z,102326.17
2018-03-01T04:10:31.255Z,102326.20
2018-03-01T04:12:56.998Z,102331.48
2018-03-01T04:15:22.758Z,102327.01
2018-03-01T04:17:48.495Z,102323.28
2018-03-01T04:20:20.356Z,102324.47
2018-03-01T04:22:46.098Z,102321.48
2018-03-01T04:25:11.850Z,102330.27
2018-03-01T04:27:37.591Z,102322.56
2018-03-01T04:30:03.362Z,102321.27
2018-03-01T04:32:29.102Z,102319.41
2018-03-01T04:34:54.853Z,102311.42
2018-03-01T04:37:20.589Z,102313.16
2018-03-01T04:39:46.356Z,102319.98
2018-03-01T04:42:12.094Z,102315.66
2018-03-01T04:44:37.860Z,102318.67
2018-03-01T04:47:03.620Z,102317.45
2018-03-01T04:49:29.480Z,102309.95
2018-03-01T04:51:55.225Z,102311.87
2018-03-01T04:54:20.971Z,102302.11
2018-03-01T04:56:46.728Z,102295.23
2018-03-01T04:59:12.476Z,102288.47
2018-03-01T05:01:38.240Z,102280.83
2018-03-01T05:04:04.037Z,102284.34
2018-03-01T05:06:29.737Z,102280.03
2018-03-01T05:08:55.470Z,102281.03
2018-03-01T05:11:21.203Z,102273.15
2018-03-01T05:13:46.931Z,102270.86
2018-03-01T05:16:12.708Z,102270.02
2018-03-01T05:18:38.414Z,102274.54
2018-03-01T05:21:04.175Z,102279.30
2018-03-01T05:23:29.918Z,102282.72
2018-03-01T05:25:55.660Z,102279.41
2018-03-01T05:28:21.394Z,102276.64
2018-03-01T05:30:47.138Z,102272.12
2018-03-01T05:33:12.887Z,102270.87
2018-03-01T05:35:38.614Z,102261.92
2018-03-01T05:38:04.356Z,102262.02
2018-03-01T05:40:30.099Z,102257.77
2018-03-01T05:42:55.848Z,102251.29
2018-03-01T05:45:21.573Z,102252.34
2018-03-01T05:47:47.333Z,102250.71
2018-03-01T05:50:13.060Z,102254.85
2018-03-01T05:52:38.818Z,102254.77
2018-03-01T05:55:04.565Z,102251.23
2018-03-01T05:57:30.307Z,102250.31
2018-03-01T06:00:10.985Z,102244.92
2018-03-01T06:02:36.754Z,102243.83
2018-03-01T06:05:02.478Z,102242.98
2018-03-01T06:07:28.224Z,102243.98
2018-03-01T06:09:53.954Z,102236.40
2018-03-01T06:12:19.706Z,102246.15
2018-03-01T06:14:45.429Z,102235.95
2018-03-01T06:17:11.174Z,102238.33
2018-03-01T06:19:36.907Z,102224.02
2018-03-01T06:22:02.646Z,102224.83
2018-03-01T06:24:28.374Z,102223.09
2018-03-01T06:26:54.101Z,102225.31
2018-03-01T06:29:19.849Z,102229.45
2018-03-01T06:31:45.582Z,102215.37
2018-03-01T06:34:11.325Z,102207.48
2018-03-01T06:36:37.060Z,102212.63
2018-03-01T06:39:02.799Z,102197.64
2018-03-01T06:41:28.522Z,102194.27
2018-03-01T06:43:54.319Z,102206.72
2018-03-01T06:46:20.006Z,102205.75
2018-03-01T06:48:45.738Z,102195.45
2018-03-01T06:51:11.479Z,102196.84
2018-03-01T06:53:37.477Z,102179.37
2018-03-01T06:56:03.214Z,102183.55
2018-03-01T06:58:28.950Z,102182.45
2018-03-01T07:00:54.682Z,102175.50
2018-03-01T07:03:20.419Z,102176.27
2018-03-01T07:05:46.173Z,102164.48
2018-03-01T07:08:11.897Z,102156.95
2018-03-01T07:10:37.633Z,102157.50
2018-03-01T07:13:03.366Z,102145.48
2018-03-01T07:15:29.107Z,102145.30
2018-03-01T07:17:54.842Z,102145.39
2018-03-01T07:20:20.588Z,102145.00
2018-03-01T07:22:46.322Z,102152.80
2018-03-01T07:25:12.054Z,102152.56
2018-03-01T07:27:37.825Z,102139.48
2018-03-01T07:30:03.571Z,102148.14
2018-03-01T07:32:29.338Z,102143.42
2018-03-01T07:34:55.086Z,102141.59
2018-03-01T07:37:20.826Z,102139.95
2018-03-01T07:39:46.571Z,102127.45
2018-03-01T07:42:12.297Z,102125.97
2018-03-01T07:44:38.060Z,102130.40
2018-03-01T07:47:03.809Z,102125.39
2018-03-01T07:49:29.550Z,102128.45
2018-03-01T07:51:55.302Z,102119.20
2018-03-01T07:54:21.059Z,102121.59
2018-03-01T07:56:46.785Z,102123.03
2018-03-01T07:59:12.525Z,102117.91
2018-03-01T08:01:38.274Z,102120.81
2018-03-01T08:04:04.045Z,102111.51
2018-03-01T08:06:29.824Z,102113.16
2018-03-01T08:08:55.590Z,102112.14
2018-03-01T08:11:21.349Z,102122.92
2018-03-01T08:13:47.097Z,102115.74
2018-03-01T08:16:12.859Z,102108.13
2018-03-01T08:18:38.630Z,102103.12
2018-03-01T08:21:04.370Z,102098.58
2018-03-01T08:23:30.126Z,102090.12
2018-03-01T08:25:55.944Z,102094.80
2018-03-01T08:28:21.696Z,102090.19
2018-03-01T08:30:47.442Z,102086.02
2018-03-01T08:33:13.185Z,102087.25
2018-03-01T08:35:38.957Z,102068.82
2018-03-01T08:38:04.702Z,102067.66
2018-03-01T08:40:30.454Z,102058.48
2018-03-01T08:42:56.199Z,102060.59
2018-03-01T08:45:21.960Z,102069.91
2018-03-01T08:47:47.694Z,102068.95
2018-03-01T08:50:13.458Z,102071.67
2018-03-01T08:52:39.192Z,102067.33
2018-03-01T08:55:04.935Z,102072.04
2018-03-01T08:57:30.667Z,102067.16
2018-03-01T08:59:56.441Z,102070.24
2018-03-01T09:02:22.179Z,102064.81
2018-03-01T09:04:47.919Z,102070.13
2018-03-01T09:07:13.668Z,102062.14
2018-03-01T09:09:39.412Z,102067.50
2018-03-01T09:12:05.174Z,102065.13
2018-03-01T09:14:30.921Z,102064.63
2018-03-01T09:16:56.669Z,102066.08
2018-03-01T09:19:22.421Z,102063.75
2018-03-01T09:21:48.152Z,102054.23
2018-03-01T09:24:13.904Z,102058.89
2018-03-01T09:26:39.646Z,102049.21
2018-03-01T09:29:05.382Z,102050.14
2018-03-01T09:31:31.137Z,102047.48
2018-03-01T09:33:56.898Z,102043.62
2018-03-01T09:36:22.618Z,102043.95
2018-03-01T09:38:48.361Z,102026.50
2018-03-01T09:41:14.087Z,102026.08
2018-03-01T09:43:39.815Z,102024.88
2018-03-01T09:46:05.543Z,102033.30
2018-03-01T09:48:31.287Z,102029.22
2018-03-01T09:50:57.014Z,102024.66
2018-03-01T09:53:22.757Z,102029.23
2018-03-01T09:55:48.486Z,102028.33
2018-03-01T09:58:14.231Z,102026.34
2018-03-01T10:00:39.964Z,102030.83
2018-03-01T10:03:05.695Z,102024.42
2018-03-01T10:05:31.430Z,102017.08
2018-03-01T10:07:57.162Z,102011.05
2018-03-01T10:10:22.911Z,102008.06
2018-03-01T10:12:48.636Z,102020.55
2018-03-01T10:15:14.372Z,102003.86
2018-03-01T10:17:40.094Z,102009.22
2018-03-01T10:20:05.824Z,102001.00
2018-03-01T10:22:31.567Z,102007.35
2018-03-01T10:24:57.295Z,101986.33
2018-03-01T10:27:25.915Z,101985.50
2018-03-01T10:29:51.638Z,101978.48
2018-03-01T10:32:17.353Z,101985.63
2018-03-01T10:34:43.090Z,101977.30
2018-03-01T10:37:08.879Z,101973.60
2018-03-01T10:39:34.557Z,101972.53
2018-03-01T10:42:00.278Z,101961.75
2018-03-01T10:44:26.018Z,101970.52
2018-03-01T10:46:51.746Z,101966.34
2018-03-01T10:49:17.486Z,101960.69
2018-03-01T10:51:43.218Z,101945.61
2018-03-01T10:54:08.949Z,101954.58
2018-03-01T10:56:34.670Z,101946.43
2018-03-01T10:59:00.402Z,101942.23
2018-03-01T11:01:31.974Z,101951.64
2018-03-01T11:03:57.693Z,101944.68
2018-03-01T11:06:23.430Z,101946.89
2018-03-01T11:08:49.186Z,101932.52
2018-03-01T11:11:14.947Z,101936.69
2018-03-01T11:13:40.690Z,101934.66
2018-03-01T11:16:06.432Z,101940.55
2018-03-01T11:18:32.169Z,101927.61
2018-03-01T11:20:57.926Z,101937.59
2018-03-01T11:23:23.692Z,101934.47
2018-03-01T11:25:49.414Z,101911.34
2018-03-01T11:28:15.145Z,101920.21
2018-03-01T11:30:40.862Z,101912.95
2018-03-01T11:33:06.593Z,101905.44
2018-03-01T11:35:32.349Z,101900.45
2018-03-01T11:37:58.082Z,101887.45
2018-03-01T11:40:23.810Z,101879.27
2018-03-01T11:42:49.543Z,101871.84
2018-03-01T11:45:15.263Z,101878.38
2018-03-01T11:47:40.999Z,101879.31
2018-03-01T11:50:06.727Z,101875.78
2018-03-01T11:52:32.446Z,101861.59
2018-03-01T11:54:58.176Z,101878.38
2018-03-01T11:57:23.898Z,101862.55
2018-03-01T11:59:49.610Z,101864.97
2018-03-01T12:02:15.337Z,101863.83
2018-03-01T12:04:41.062Z,101861.27
2018-03-01T12:07:06.780Z,101855.94
2018-03-01T12:09:32.514Z,101854.12
2018-03-01T12:11:58.250Z,101841.71
2018-03-01T12:14:23.967Z,101841.70
2018-03-01T12:16:49.700Z,101836.01
2018-03-01T12:19:15.406Z,101834.00
2018-03-01T12:21:41.122Z,101827.38
2018-03-01T12:24:06.854Z,101831.47
2018-03-01T12:26:32.586Z,101839.83
2018-03-01T12:28:58.314Z,101838.42
2018-03-01T12:31:24.038Z,101827.00
2018-03-01T12:33:49.766Z,101829.87
2018-03-01T12:36:15.486Z,101821.41
2018-03-01T12:38:41.212Z,101819.50
2018-03-01T12:41:06.939Z,101811.80
2018-03-01T12:43:32.680Z,101808.73
2018-03-01T12:45:58.457Z,101797.69
2018-03-01T12:48:24.151Z,101801.90
2018-03-01T12:50:49.978Z,101810.16
2018-03-01T12:53:15.772Z,101804.02
2018-03-01T12:55:41.855Z,101808.27
2018-03-01T12:58:07.723Z,101802.53
2018-03-01T13:00:33.549Z,101800.67
2018-03-01T13:02:59.414Z,101791.41
2018-03-01T13:05:25.335Z,101786.20
2018-03-01T13:07:51.697Z,101789.03
2018-03-01T13:10:17.584Z,101786.08
2018-03-01T13:12:43.620Z,101770.97
2018-03-01T13:15:11.163Z,101774.48
2018-03-01T13:17:36.906Z,101759.70
2018-03-01T13:20:02.647Z,101753.94
2018-03-01T13:22:30.218Z,101753.69
2018-03-01T13:24:58.034Z,101740.84
2018-03-01T13:27:23.831Z,101735.99
2018-03-01T13:29:49.571Z,101732.12
2018-03-01T13:35:17.589Z,101743.75
2018-03-01T13:37:43.337Z,101730.20
2018-03-01T13:40:09.061Z,101729.60
2018-03-01T13:42:37.672Z,101732.20
2018-03-01T13:45:03.428Z,101734.92
2018-03-01T13:47:32.372Z,101721.84
2018-03-01T13:49:58.412Z,101721.23
2018-03-01T13:52:24.391Z,101723.16
2018-03-01T13:54:51.174Z,101721.90
2018-03-01T13:57:17.246Z,101721.39
2018-03-01T13:59:43.084Z,101722.98
2018-03-01T14:02:08.986Z,101717.34
2018-03-01T14:04:35.277Z,101712.61
2018-03-01T14:10:09.717Z,101702.02
2018-03-01T14:12:36.624Z,101707.36
2018-03-01T14:15:09.434Z,101695.30
2018-03-01T14:17:41.493Z,101702.41
2018-03-01T14:20:10.419Z,101696.71
2018-03-01T14:22:42.330Z,101699.36
2018-03-01T14:25:10.378Z,101700.41
2018-03-01T14:27:38.449Z,101699.73
2018-03-01T14:30:05.650Z,101691.22
2018-03-01T14:32:31.651Z,101699.41
2018-03-01T14:34:57.608Z,101694.06
2018-03-01T14:37:23.515Z,101694.25
2018-03-01T14:39:49.409Z,101692.23
2018-03-01T14:42:15.452Z,101689.11
2018-03-01T14:44:41.317Z,101672.81
2018-03-01T14:47:07.187Z,101671.05
2018-03-01T14:49:32.984Z,101662.56
2018-03-01T14:51:58.958Z,101658.52
2018-03-01T14:54:24.903Z,101659.41
2018-03-01T14:56:50.692Z,101651.97
2018-03-01T14:59:16.614Z,101652.69
2018-03-01T15:01:42.585Z,101650.22
2018-03-01T15:04:08.346Z,101643.58
2018-03-01T15:06:34.113Z,101635.35
2018-03-01T15:08:59.880Z,101627.31
2018-03-01T15:11:25.957Z,101622.20
2018-03-01T15:13:51.768Z,101617.51
2018-03-01T15:16:17.585Z,101621.62
2018-03-01T15:18:43.454Z,101611.67
2018-03-01T15:21:09.437Z,101617.31
2018-03-01T15:23:35.276Z,101613.67
2018-03-01T15:26:01.073Z,101609.38
2018-03-01T15:28:26.859Z,101608.41
2018-03-01T15:30:52.762Z,101597.05
2018-03-01T15:33:18.722Z,101602.76
2018-03-01T15:35:44.537Z,101605.09
2018-03-01T15:38:10.337Z,101597.52
2018-03-01T15:40:36.152Z,101600.77
2018-03-01T15:43:02.004Z,101596.97
2018-03-01T15:45:27.904Z,101591.81
2018-03-01T15:47:53.765Z,101592.97
2018-03-01T15:50:19.588Z,101579.74
2018-03-01T15:52:45.423Z,101577.28
2018-03-01T15:55:11.294Z,101591.75
2018-03-01T15:57:37.159Z,101585.40
2018-03-01T16:00:03.020Z,101574.31
2018-03-01T16:02:28.900Z,101576.59
2018-03-01T16:04:54.746Z,101570.83
2018-03-01T16:07:20.727Z,101569.30
2018-03-01T16:09:46.554Z,101559.83
2018-03-01T16:12:12.486Z,101566.04
2018-03-01T16:14:38.242Z,101562.05
2018-03-01T16:17:03.977Z,101551.13
2018-03-01T16:19:29.706Z,101541.58
2018-03-01T16:21:55.444Z,101543.55
2018-03-01T16:24:21.178Z,101546.97
2018-03-01T16:26:46.911Z,101541.23
2018-03-01T16:29:12.642Z,101544.78
2018-03-01T16:31:38.390Z,101536.18
2018-03-01T16:34:04.122Z,101530.67
2018-03-01T16:36:29.859Z,101526.78
2018-03-01T16:38:55.573Z,101526.78
2018-03-01T16:41:21.302Z,101523.77
2018-03-01T16:43:47.018Z,101514.52
2018-03-01T16:46:12.754Z,101518.66
2018-03-01T16:48:38.495Z,101516.80
2018-03-01T16:51:04.240Z,101520.16
2018-03-01T16:53:29.974Z,101522.88
2018-03-01T16:55:55.714Z,101525.14
2018-03-01T16:58:21.430Z,101529.86
2018-03-01T17:00:47.179Z,101527.96
2018-03-01T17:03:14.417Z,101521.52
2018-03-01T17:05:40.295Z,101529.27
2018-03-01T17:08:06.030Z,101520.44
2018-03-01T17:10:31.773Z,101524.88
2018-03-01T17:12:57.498Z,101522.48
2018-03-01T17:15:23.214Z,101519.84
2018-03-01T17:17:48.941Z,101529.86
2018-03-01T17:20:14.675Z,101524.17
2018-03-01T17:22:40.432Z,101520.62
2018-03-01T17:25:06.169Z,101517.57
2018-03-01T17:27:31.910Z,101509.70
2018-03-01T17:29:57.656Z,101511.70
2018-03-01T17:32:23.396Z,101511.32
2018-03-01T17:34:49.137Z,101503.23
2018-03-01T17:37:15.091Z,101501.36
2018-03-01T17:39:40.825Z,101502.66
2018-03-01T17:42:06.558Z,101498.85
2018-03-01T17:44:32.293Z,101495.41
2018-03-01T17:46:58.054Z,101491.08
2018-03-01T17:49:23.783Z,101483.89
2018-03-01T17:51:49.518Z,101492.88
2018-03-01T17:54:15.272Z,101492.77
2018-03-01T17:56:40.998Z,101474.92
2018-03-01T17:59:06.740Z,101489.76
2018-03-01T18:01:32.465Z,101477.76
2018-03-01T18:03:58.207Z,101486.11
2018-03-01T18:06:23.942Z,101488.11
2018-03-01T18:08:49.698Z,101486.64
2018-03-01T18:11:15.436Z,101486.10
2018-03-01T18:13:41.163Z,101488.89
2018-03-01T18:16:06.895Z,101483.03
2018-03-01T18:18:32.628Z,101481.28
2018-03-01T18:20:58.427Z,101479.02
2018-03-01T18:23:24.131Z,101479.48
2018-03-01T18:25:49.870Z,101477.09
2018-03-01T18:28:15.645Z,101478.72
2018-03-01T18:30:41.387Z,101474.30
2018-03-01T18:33:07.112Z,101483.15
2018-03-01T18:35:32.873Z,101476.00
2018-03-01T18:37:59.019Z,101471.34
2018-03-01T18:40:24.823Z,101468.57
2018-03-01T18:42:50.542Z,101467.98
2018-03-01T18:45:16.270Z,101467.09
2018-03-01T18:47:41.994Z,101463.92
2018-03-01T18:50:07.794Z,101474.31
2018-03-01T18:52:33.593Z,101465.73
2018-03-01T18:54:59.391Z,101460.36
2018-03-01T18:57:25.135Z,101461.45
2018-03-01T18:59:50.969Z,101452.36
2018-03-01T19:02:16.810Z,101459.73
2018-03-01T19:04:42.680Z,101457.53
2018-03-01T19:07:08.510Z,101450.95
2018-03-01T19:09:34.390Z,101453.60
2018-03-01T19:12:00.137Z,101453.06
2018-03-01T19:14:25.890Z,101454.09
2018-03-01T19:16:51.635Z,101454.23
2018-03-01T19:19:18.116Z,101459.58
2018-03-01T19:21:44.037Z,101457.06
2018-03-01T19:24:11.664Z,101451.72
2018-03-01T19:26:37.938Z,101451.59
2018-03-01T19:29:04.880Z,101439.83
2018-03-01T19:31:31.006Z,101449.07
2018-03-01T19:33:57.172Z,101447.27
2018-03-01T19:36:22.952Z,101445.53
2018-03-01T19:38:48.715Z,101442.34
2018-03-01T19:41:14.465Z,101436.53
2018-03-01T19:43:40.219Z,101441.56
2018-03-01T19:46:06.096Z,101446.27
2018-03-01T19:48:32.266Z,101439.70
2018-03-01T19:50:58.022Z,101443.83
2018-03-01T19:53:23.778Z,101433.70
2018-03-01T19:55:49.513Z,101436.08
2018-03-01T19:58:15.242Z,101434.45
2018-03-01T20:00:41.010Z,101433.09
2018-03-01T20:03:06.771Z,101433.00
2018-03-01T20:05:32.527Z,101437.13
2018-03-01T20:07:58.296Z,101431.66
2018-03-01T20:10:24.042Z,101432.88
2018-03-01T20:12:49.803Z,101431.19
2018-03-01T20:15:16.836Z,101436.48
2018-03-01T20:17:43.758Z,101436.86
2018-03-01T20:20:09.552Z,101427.45
2018-03-01T20:22:35.494Z,101430.77
2018-03-01T20:25:01.241Z,101429.30
2018-03-01T20:27:27.007Z,101428.55
2018-03-01T20:29:52.761Z,101422.77
2018-03-01T20:32:18.737Z,101420.92
2018-03-01T20:34:44.473Z,101428.47
2018-03-01T20:37:10.220Z,101418.91
2018-03-01T20:39:35.980Z,101418.98
2018-03-01T20:42:01.769Z,101414.20
2018-03-01T20:44:27.483Z,101415.58
2018-03-01T20:46:53.247Z,101405.53
2018-03-01T20:49:18.998Z,101401.00
2018-03-01T20:51:44.731Z,101392.56
2018-03-01T20:54:10.485Z,101393.45
2018-03-01T20:56:36.235Z,101394.75
2018-03-01T20:59:01.988Z,101388.86
2018-03-01T21:01:27.730Z,101388.70
2018-03-01T21:03:53.490Z,101384.69
2018-03-01T21:06:19.253Z,101385.86
2018-03-01T21:08:44.999Z,101381.63
2018-03-01T21:11:10.763Z,101379.36
2018-03-01T21:13:36.514Z,101381.41
2018-03-01T21:16:02.259Z,101379.63
2018-03-01T21:18:28.015Z,101369.76
2018-03-01T21:20:53.820Z,101369.30
2018-03-01T21:23:19.572Z,101363.38
2018-03-01T21:25:45.333Z,101364.08
2018-03-01T21:28:11.103Z,101362.72
2018-03-01T21:30:36.877Z,101356.52
2018-03-01T21:33:02.614Z,101369.75
2018-03-01T21:35:28.355Z,101367.81
2018-03-01T21:37:54.105Z,101354.71
2018-03-01T21:40:19.853Z,101362.95
2018-03-01T21:42:45.609Z,101348.63
2018-03-01T21:45:11.374Z,101349.87
2018-03-01T21:47:37.098Z,101344.52
2018-03-01T21:50:02.850Z,101345.67
2018-03-01T21:52:28.583Z,101344.64
2018-03-01T21:54:54.333Z,101345.16
2018-03-01T21:57:20.079Z,101348.00
2018-03-01T21:59:45.838Z,101337.67
2018-03-01T22:02:11.587Z,101333.73
2018-03-01T22:04:37.332Z,101341.91
2018-03-01T22:07:03.102Z,101341.20
2018-03-01T22:09:28.833Z,101331.80
2018-03-01T22:11:54.587Z,101336.38
2018-03-01T22:14:20.343Z,101329.68
2018-03-01T22:16:46.095Z,101327.80
2018-03-01T22:19:11.855Z,101325.33
2018-03-01T22:21:37.598Z,101338.47
2018-03-01T22:24:03.373Z,101329.34
2018-03-01T22:26:29.130Z,101324.03
2018-03-01T22:28:54.871Z,101317.25
2018-03-01T22:31:20.616Z,101316.38
2018-03-01T22:33:46.362Z,101318.88
2018-03-01T22:36:12.105Z,101303.87
2018-03-01T22:38:37.850Z,101319.24
2018-03-01T22:41:03.611Z,101318.14
2018-03-01T22:43:29.345Z,101316.02
2018-03-01T22:45:55.079Z,101317.40
2018-03-01T22:48:20.882Z,101318.62
2018-03-01T22:50:46.623Z,101318.95
2018-03-01T22:53:12.381Z,101319.36
2018-03-01T22:55:38.114Z,101320.11
2018-03-01T22:58:03.895Z,101322.17
2018-03-01T23:00:42.070Z,101315.20
2018-03-01T23:03:07.809Z,101319.99
2018-03-01T23:05:33.550Z,101316.76
2018-03-01T23:07:59.282Z,101326.44
2018-03-01T23:10:25.027Z,101329.20
2018-03-01T23:12:50.770Z,101321.56
2018-03-01T23:15:16.555Z,101322.99
2018-03-01T23:17:42.284Z,101322.69
2018-03-01T23:20:08.011Z,101318.88
2018-03-01T23:22:33.754Z,101327.21
2018-03-01T23:24:59.498Z,101315.09
2018-03-01T23:27:25.262Z,101309.58
2018-03-01T23:29:51.006Z,101311.66
2018-03-01T23:32:16.754Z,101307.41
2018-03-01T23:34:42.490Z,101304.70
2018-03-01T23:37:08.247Z,101300.95
2018-03-01T23:39:33.995Z,101300.05
2018-03-01T23:41:59.746Z,101290.54
2018-03-01T23:44:25.487Z,101290.73
2018-03-01T23:46:51.227Z,101296.88
2018-03-01T23:49:16.981Z,101290.61
2018-03-01T23:51:42.731Z,101283.88
2018-03-01T23:54:08.488Z,101279.80
2018-03-01T23:56:34.262Z,101266.17
2018-03-01T23:59:00.098Z,101272.06
